sensor_id;sensor_type;location;lat;lon;timestamp;temperature;humidity
17639;DHT22;8938;53.546;9.954;2022-07-23T00:00:12;20.60;98.70
17639;DHT22;8938;53.546;9.954;2022-07-23T00:02:37;20.70;98.90
17639;DHT22;8938;53.546;9.954;2022-07-23T00:05:03;20.70;99.10
17639;DHT22;8938;53.546;9.954;2022-07-23T00:07:29;20.70;99.20
17639;DHT22;8938;53.546;9.954;2022-07-23T00:09:55;20.80;99.40
17639;DHT22;8938;53.546;9.954;2022-07-23T00:12:20;20.80;99.50
17639;DHT22;8938;53.546;9.954;2022-07-23T00:14:46;20.80;99.60
17639;DHT22;8938;53.546;9.954;2022-07-23T00:17:12;20.90;99.70
17639;DHT22;8938;53.546;9.954;2022-07-23T00:19:37;20.80;99.50
17639;DHT22;8938;53.546;9.954;2022-07-23T00:22:03;20.80;99.90
17639;DHT22;8938;53.546;9.954;2022-07-23T00:24:28;20.70;99.90
17639;DHT22;8938;53.546;9.954;2022-07-23T00:26:54;20.60;99.90
17639;DHT22;8938;53.546;9.954;2022-07-23T00:29:19;20.60;99.90
17639;DHT22;8938;53.546;9.954;2022-07-23T00:31:45;20.70;99.90
17639;DHT22;8938;53.546;9.954;2022-07-23T00:34:10;20.70;99.90
17639;DHT22;8938;53.546;9.954;2022-07-23T00:36:36;20.60;99.90
17639;DHT22;8938;53.546;9.954;2022-07-23T00:39:03;20.60;99.90
17639;DHT22;8938;53.546;9.954;2022-07-23T00:41:28;20.50;99.90
17639;DHT22;8938;53.546;9.954;2022-07-23T00:43:54;20.50;99.90
17639;DHT22;8938;53.546;9.954;2022-07-23T00:46:21;20.40;99.90
17639;DHT22;8938;53.546;9.954;2022-07-23T00:48:46;20.30;99.90
17639;DHT22;8938;53.546;9.954;2022-07-23T00:51:12;20.30;99.90
17639;DHT22;8938;53.546;9.954;2022-07-23T00:53:38;20.20;99.90
17639;DHT22;8938;53.546;9.954;2022-07-23T00:56:04;20.10;99.90
17639;DHT22;8938;53.546;9.954;2022-07-23T00:58:30;20.10;99.90
17639;DHT22;8938;53.546;9.954;2022-07-23T01:00:55;20.20;99.90
17639;DHT22;8938;53.546;9.954;2022-07-23T01:03:21;20.20;99.90
17639;DHT22;8938;53.546;9.954;2022-07-23T01:05:47;20.20;99.90
17639;DHT22;8938;53.546;9.954;2022-07-23T01:08:14;20.20;99.90
17639;DHT22;8938;53.546;9.954;2022-07-23T01:10:40;20.30;99.90
17639;DHT22;8938;53.546;9.954;2022-07-23T01:13:08;20.40;99.90
17639;DHT22;8938;53.546;9.954;2022-07-23T01:15:36;20.40;99.90
17639;DHT22;8938;53.546;9.954;2022-07-23T01:18:03;20.60;99.90
17639;DHT22;8938;53.546;9.954;2022-07-23T01:20:30;20.40;99.90
17639;DHT22;8938;53.546;9.954;2022-07-23T01:22:55;20.40;99.90
17639;DHT22;8938;53.546;9.954;2022-07-23T01:25:21;20.40;99.90
17639;DHT22;8938;53.546;9.954;2022-07-23T01:27:47;20.40;99.90
17639;DHT22;8938;53.546;9.954;2022-07-23T01:30:13;20.30;99.90
17639;DHT22;8938;53.546;9.954;2022-07-23T01:32:39;20.30;99.90
17639;DHT22;8938;53.546;9.954;2022-07-23T01:35:06;20.40;99.90
17639;DHT22;8938;53.546;9.954;2022-07-23T01:37:32;20.30;99.90
17639;DHT22;8938;53.546;9.954;2022-07-23T01:39:57;20.30;99.90
17639;DHT22;8938;53.546;9.954;2022-07-23T01:42:24;20.30;99.90
17639;DHT22;8938;53.546;9.954;2022-07-23T01:44:49;20.30;99.90
17639;DHT22;8938;53.546;9.954;2022-07-23T01:47:15;20.20;99.90
17639;DHT22;8938;53.546;9.954;2022-07-23T01:49:41;20.40;99.90
17639;DHT22;8938;53.546;9.954;2022-07-23T01:52:07;20.30;99.90
17639;DHT22;8938;53.546;9.954;2022-07-23T01:54:37;20.50;99.90
17639;DHT22;8938;53.546;9.954;2022-07-23T01:57:04;20.70;99.90
17639;DHT22;8938;53.546;9.954;2022-07-23T01:59:29;20.30;99.90
17639;DHT22;8938;53.546;9.954;2022-07-23T02:01:55;20.30;99.90
17639;DHT22;8938;53.546;9.954;2022-07-23T02:04:22;20.40;99.90
17639;DHT22;8938;53.546;9.954;2022-07-23T02:06:49;20.20;99.90
17639;DHT22;8938;53.546;9.954;2022-07-23T02:09:14;20.10;99.90
17639;DHT22;8938;53.546;9.954;2022-07-23T02:11:40;20.10;99.90
17639;DHT22;8938;53.546;9.954;2022-07-23T02:14:06;20.40;99.90
17639;DHT22;8938;53.546;9.954;2022-07-23T02:16:32;20.10;99.90
17639;DHT22;8938;53.546;9.954;2022-07-23T02:18:57;20.20;99.90
17639;DHT22;8938;53.546;9.954;2022-07-23T02:21:23;20.20;99.90
17639;DHT22;8938;53.546;9.954;2022-07-23T02:23:49;20.10;99.90
17639;DHT22;8938;53.546;9.954;2022-07-23T02:26:14;20.00;99.90
17639;DHT22;8938;53.546;9.954;2022-07-23T02:28:40;19.90;99.90
17639;DHT22;8938;53.546;9.954;2022-07-23T02:31:05;20.00;99.90
17639;DHT22;8938;53.546;9.954;2022-07-23T02:33:32;20.10;99.90
17639;DHT22;8938;53.546;9.954;2022-07-23T02:35:58;19.90;99.90
17639;DHT22;8938;53.546;9.954;2022-07-23T02:38:23;19.90;99.90
17639;DHT22;8938;53.546;9.954;2022-07-23T02:40:49;19.80;99.90
17639;DHT22;8938;53.546;9.954;2022-07-23T02:43:14;19.90;99.90
17639;DHT22;8938;53.546;9.954;2022-07-23T02:45:40;19.80;99.90
17639;DHT22;8938;53.546;9.954;2022-07-23T02:48:06;19.70;99.90
17639;DHT22;8938;53.546;9.954;2022-07-23T02:50:31;19.60;99.90
17639;DHT22;8938;53.546;9.954;2022-07-23T02:52:57;19.60;99.90
17639;DHT22;8938;53.546;9.954;2022-07-23T02:55:22;19.60;99.90
17639;DHT22;8938;53.546;9.954;2022-07-23T02:57:48;19.50;99.90
17639;DHT22;8938;53.546;9.954;2022-07-23T03:00:14;19.40;99.90
17639;DHT22;8938;53.546;9.954;2022-07-23T03:02:39;19.50;99.90
17639;DHT22;8938;53.546;9.954;2022-07-23T03:05:06;19.50;99.90
17639;DHT22;8938;53.546;9.954;2022-07-23T03:07:32;19.50;99.90
17639;DHT22;8938;53.546;9.954;2022-07-23T03:09:57;19.50;99.90
17639;DHT22;8938;53.546;9.954;2022-07-23T03:12:23;19.50;99.90
17639;DHT22;8938;53.546;9.954;2022-07-23T03:14:48;19.50;99.90
17639;DHT22;8938;53.546;9.954;2022-07-23T03:17:14;19.50;99.90
17639;DHT22;8938;53.546;9.954;2022-07-23T03:19:40;19.60;99.90
17639;DHT22;8938;53.546;9.954;2022-07-23T03:22:05;19.60;99.90
17639;DHT22;8938;53.546;9.954;2022-07-23T03:24:31;19.60;99.90
17639;DHT22;8938;53.546;9.954;2022-07-23T03:27:15;19.60;99.90
17639;DHT22;8938;53.546;9.954;2022-07-23T03:29:41;19.60;99.90
17639;DHT22;8938;53.546;9.954;2022-07-23T03:32:07;19.60;99.90
17639;DHT22;8938;53.546;9.954;2022-07-23T03:34:32;19.60;99.90
17639;DHT22;8938;53.546;9.954;2022-07-23T03:36:58;19.60;99.90
17639;DHT22;8938;53.546;9.954;2022-07-23T03:39:24;19.60;99.90
17639;DHT22;8938;53.546;9.954;2022-07-23T03:41:49;19.60;99.90
17639;DHT22;8938;53.546;9.954;2022-07-23T03:44:15;19.60;99.90
17639;DHT22;8938;53.546;9.954;2022-07-23T03:46:40;19.50;99.90
17639;DHT22;8938;53.546;9.954;2022-07-23T03:49:06;19.60;99.90
17639;DHT22;8938;53.546;9.954;2022-07-23T03:51:31;19.60;99.90
17639;DHT22;8938;53.546;9.954;2022-07-23T03:53:57;19.60;99.90
17639;DHT22;8938;53.546;9.954;2022-07-23T03:56:23;19.70;99.90
17639;DHT22;8938;53.546;9.954;2022-07-23T03:58:49;19.70;99.90
17639;DHT22;8938;53.546;9.954;2022-07-23T04:01:14;19.60;99.90
17639;DHT22;8938;53.546;9.954;2022-07-23T04:03:40;19.60;99.90
17639;DHT22;8938;53.546;9.954;2022-07-23T04:06:06;19.70;99.90
17639;DHT22;8938;53.546;9.954;2022-07-23T04:08:31;19.80;99.90
17639;DHT22;8938;53.546;9.954;2022-07-23T04:10:57;19.90;99.90
17639;DHT22;8938;53.546;9.954;2022-07-23T04:13:23;20.10;99.90
17639;DHT22;8938;53.546;9.954;2022-07-23T04:15:48;20.20;99.90
17639;DHT22;8938;53.546;9.954;2022-07-23T04:18:16;20.30;99.90
17639;DHT22;8938;53.546;9.954;2022-07-23T04:20:43;20.30;99.90
17639;DHT22;8938;53.546;9.954;2022-07-23T04:23:08;20.30;99.90
17639;DHT22;8938;53.546;9.954;2022-07-23T04:25:35;20.20;99.90
17639;DHT22;8938;53.546;9.954;2022-07-23T04:28:00;20.20;99.90
17639;DHT22;8938;53.546;9.954;2022-07-23T04:30:26;20.20;99.90
17639;DHT22;8938;53.546;9.954;2022-07-23T04:32:52;20.10;99.90
17639;DHT22;8938;53.546;9.954;2022-07-23T04:35:17;20.10;99.90
17639;DHT22;8938;53.546;9.954;2022-07-23T04:37:43;20.00;99.90
17639;DHT22;8938;53.546;9.954;2022-07-23T04:40:09;20.00;99.90
17639;DHT22;8938;53.546;9.954;2022-07-23T04:42:34;20.00;99.90
17639;DHT22;8938;53.546;9.954;2022-07-23T04:45:00;20.00;99.90
17639;DHT22;8938;53.546;9.954;2022-07-23T04:47:26;20.00;99.90
17639;DHT22;8938;53.546;9.954;2022-07-23T04:49:51;19.80;99.90
17639;DHT22;8938;53.546;9.954;2022-07-23T04:52:17;19.70;99.90
17639;DHT22;8938;53.546;9.954;2022-07-23T04:54:42;19.70;99.90
17639;DHT22;8938;53.546;9.954;2022-07-23T04:57:08;19.60;99.90
17639;DHT22;8938;53.546;9.954;2022-07-23T04:59:33;19.70;99.90
17639;DHT22;8938;53.546;9.954;2022-07-23T05:01:59;19.50;99.90
17639;DHT22;8938;53.546;9.954;2022-07-23T05:04:24;19.50;99.90
17639;DHT22;8938;53.546;9.954;2022-07-23T05:06:50;19.60;99.90
17639;DHT22;8938;53.546;9.954;2022-07-23T05:09:15;19.60;99.90
17639;DHT22;8938;53.546;9.954;2022-07-23T05:11:41;19.80;99.90
17639;DHT22;8938;53.546;9.954;2022-07-23T05:14:06;19.80;99.90
17639;DHT22;8938;53.546;9.954;2022-07-23T05:16:32;19.90;99.90
17639;DHT22;8938;53.546;9.954;2022-07-23T05:18:57;19.90;99.90
17639;DHT22;8938;53.546;9.954;2022-07-23T05:21:23;19.90;99.90
17639;DHT22;8938;53.546;9.954;2022-07-23T05:23:48;19.90;99.90
17639;DHT22;8938;53.546;9.954;2022-07-23T05:26:14;20.00;99.90
17639;DHT22;8938;53.546;9.954;2022-07-23T05:28:39;20.10;99.90
17639;DHT22;8938;53.546;9.954;2022-07-23T05:31:05;20.10;99.90
17639;DHT22;8938;53.546;9.954;2022-07-23T05:33:31;20.10;99.90
17639;DHT22;8938;53.546;9.954;2022-07-23T05:36:01;20.10;99.90
17639;DHT22;8938;53.546;9.954;2022-07-23T05:38:28;20.20;99.90
17639;DHT22;8938;53.546;9.954;2022-07-23T05:40:53;20.20;99.90
17639;DHT22;8938;53.546;9.954;2022-07-23T05:43:19;20.20;99.90
17639;DHT22;8938;53.546;9.954;2022-07-23T05:45:44;20.10;99.90
17639;DHT22;8938;53.546;9.954;2022-07-23T05:48:10;20.20;99.90
17639;DHT22;8938;53.546;9.954;2022-07-23T05:50:35;20.20;99.90
17639;DHT22;8938;53.546;9.954;2022-07-23T05:53:01;20.20;99.90
17639;DHT22;8938;53.546;9.954;2022-07-23T05:55:27;20.20;99.90
17639;DHT22;8938;53.546;9.954;2022-07-23T05:57:55;20.30;99.90
17639;DHT22;8938;53.546;9.954;2022-07-23T06:00:21;20.30;99.90
17639;DHT22;8938;53.546;9.954;2022-07-23T06:02:46;20.10;99.90
17639;DHT22;8938;53.546;9.954;2022-07-23T06:05:12;20.40;99.90
17639;DHT22;8938;53.546;9.954;2022-07-23T06:07:37;20.40;99.90
17639;DHT22;8938;53.546;9.954;2022-07-23T06:10:03;20.30;99.90
17639;DHT22;8938;53.546;9.954;2022-07-23T06:12:29;20.30;99.90
17639;DHT22;8938;53.546;9.954;2022-07-23T06:14:55;20.30;99.90
17639;DHT22;8938;53.546;9.954;2022-07-23T06:17:21;20.30;99.90
17639;DHT22;8938;53.546;9.954;2022-07-23T06:19:47;20.40;99.90
17639;DHT22;8938;53.546;9.954;2022-07-23T06:22:13;20.40;99.90
17639;DHT22;8938;53.546;9.954;2022-07-23T06:24:38;20.40;99.90
17639;DHT22;8938;53.546;9.954;2022-07-23T06:27:04;20.40;99.90
17639;DHT22;8938;53.546;9.954;2022-07-23T06:29:30;20.60;99.90
17639;DHT22;8938;53.546;9.954;2022-07-23T06:31:55;20.60;99.90
17639;DHT22;8938;53.546;9.954;2022-07-23T06:34:21;20.70;99.90
17639;DHT22;8938;53.546;9.954;2022-07-23T06:36:46;20.70;99.90
17639;DHT22;8938;53.546;9.954;2022-07-23T06:39:12;20.80;99.90
17639;DHT22;8938;53.546;9.954;2022-07-23T06:41:38;20.70;99.90
17639;DHT22;8938;53.546;9.954;2022-07-23T06:44:03;20.60;99.90
17639;DHT22;8938;53.546;9.954;2022-07-23T06:46:29;20.50;99.90
17639;DHT22;8938;53.546;9.954;2022-07-23T06:48:54;20.40;99.90
17639;DHT22;8938;53.546;9.954;2022-07-23T06:51:20;20.50;99.90
17639;DHT22;8938;53.546;9.954;2022-07-23T06:53:46;20.40;99.90
17639;DHT22;8938;53.546;9.954;2022-07-23T06:56:12;20.40;99.90
17639;DHT22;8938;53.546;9.954;2022-07-23T06:58:37;20.30;99.90
17639;DHT22;8938;53.546;9.954;2022-07-23T07:01:03;20.50;99.90
17639;DHT22;8938;53.546;9.954;2022-07-23T07:03:29;20.70;99.90
17639;DHT22;8938;53.546;9.954;2022-07-23T07:05:55;20.80;99.90
17639;DHT22;8938;53.546;9.954;2022-07-23T07:08:23;21.00;99.90
17639;DHT22;8938;53.546;9.954;2022-07-23T07:10:48;21.00;99.90
17639;DHT22;8938;53.546;9.954;2022-07-23T07:13:14;21.10;99.90
17639;DHT22;8938;53.546;9.954;2022-07-23T07:15:39;21.10;99.90
17639;DHT22;8938;53.546;9.954;2022-07-23T07:18:05;20.90;99.90
17639;DHT22;8938;53.546;9.954;2022-07-23T07:20:30;20.80;99.90
17639;DHT22;8938;53.546;9.954;2022-07-23T07:22:56;20.80;99.90
17639;DHT22;8938;53.546;9.954;2022-07-23T07:25:22;20.70;99.90
17639;DHT22;8938;53.546;9.954;2022-07-23T07:27:47;20.50;99.90
17639;DHT22;8938;53.546;9.954;2022-07-23T07:30:13;20.40;99.90
17639;DHT22;8938;53.546;9.954;2022-07-23T07:32:39;20.40;99.90
17639;DHT22;8938;53.546;9.954;2022-07-23T07:35:05;20.40;99.90
17639;DHT22;8938;53.546;9.954;2022-07-23T07:37:31;20.50;99.90
17639;DHT22;8938;53.546;9.954;2022-07-23T07:39:56;20.60;99.90
17639;DHT22;8938;53.546;9.954;2022-07-23T07:42:22;20.70;99.90
17639;DHT22;8938;53.546;9.954;2022-07-23T07:44:47;20.80;99.90
17639;DHT22;8938;53.546;9.954;2022-07-23T07:47:13;21.00;99.90
17639;DHT22;8938;53.546;9.954;2022-07-23T07:49:41;21.20;99.90
17639;DHT22;8938;53.546;9.954;2022-07-23T07:52:07;21.30;99.90
17639;DHT22;8938;53.546;9.954;2022-07-23T07:54:32;21.40;99.90
17639;DHT22;8938;53.546;9.954;2022-07-23T07:56:58;21.60;99.90
17639;DHT22;8938;53.546;9.954;2022-07-23T07:59:23;21.70;99.90
17639;DHT22;8938;53.546;9.954;2022-07-23T08:01:49;21.90;99.90
17639;DHT22;8938;53.546;9.954;2022-07-23T08:04:15;22.00;99.90
17639;DHT22;8938;53.546;9.954;2022-07-23T08:06:40;21.90;99.90
17639;DHT22;8938;53.546;9.954;2022-07-23T08:09:06;21.90;99.90
17639;DHT22;8938;53.546;9.954;2022-07-23T08:11:31;21.70;99.90
17639;DHT22;8938;53.546;9.954;2022-07-23T08:13:57;21.70;99.90
17639;DHT22;8938;53.546;9.954;2022-07-23T08:16:22;21.90;99.90
17639;DHT22;8938;53.546;9.954;2022-07-23T08:18:48;22.00;99.90
17639;DHT22;8938;53.546;9.954;2022-07-23T08:21:13;21.90;99.90
17639;DHT22;8938;53.546;9.954;2022-07-23T08:23:39;21.50;99.90
17639;DHT22;8938;53.546;9.954;2022-07-23T08:26:04;21.00;99.90
17639;DHT22;8938;53.546;9.954;2022-07-23T08:28:30;20.60;99.90
17639;DHT22;8938;53.546;9.954;2022-07-23T08:30:59;20.30;99.90
17639;DHT22;8938;53.546;9.954;2022-07-23T08:33:25;20.10;99.90
17639;DHT22;8938;53.546;9.954;2022-07-23T08:35:51;20.00;99.90
17639;DHT22;8938;53.546;9.954;2022-07-23T08:38:19;20.10;99.90
17639;DHT22;8938;53.546;9.954;2022-07-23T08:40:48;20.20;99.90
17639;DHT22;8938;53.546;9.954;2022-07-23T08:43:20;20.50;99.90
17639;DHT22;8938;53.546;9.954;2022-07-23T08:45:51;20.80;99.90
17639;DHT22;8938;53.546;9.954;2022-07-23T08:48:22;21.00;99.90
17639;DHT22;8938;53.546;9.954;2022-07-23T08:50:53;21.20;99.90
17639;DHT22;8938;53.546;9.954;2022-07-23T08:53:21;21.30;99.90
17639;DHT22;8938;53.546;9.954;2022-07-23T08:55:51;21.50;99.90
17639;DHT22;8938;53.546;9.954;2022-07-23T08:58:18;21.80;99.90
17639;DHT22;8938;53.546;9.954;2022-07-23T09:00:45;21.90;99.90
17639;DHT22;8938;53.546;9.954;2022-07-23T09:03:19;22.00;99.90
17639;DHT22;8938;53.546;9.954;2022-07-23T09:05:46;22.20;99.90
17639;DHT22;8938;53.546;9.954;2022-07-23T09:08:17;22.40;99.90
17639;DHT22;8938;53.546;9.954;2022-07-23T09:13:34;22.60;99.90
17639;DHT22;8938;53.546;9.954;2022-07-23T09:16:09;22.80;99.90
17639;DHT22;8938;53.546;9.954;2022-07-23T09:18:37;22.90;99.90
17639;DHT22;8938;53.546;9.954;2022-07-23T09:21:08;23.10;99.80
17639;DHT22;8938;53.546;9.954;2022-07-23T09:23:48;23.10;99.30
17639;DHT22;8938;53.546;9.954;2022-07-23T09:28:51;22.90;98.80
17639;DHT22;8938;53.546;9.954;2022-07-23T09:31:17;23.00;99.00
17639;DHT22;8938;53.546;9.954;2022-07-23T09:33:42;23.70;99.00
17639;DHT22;8938;53.546;9.954;2022-07-23T09:36:08;24.30;98.10
17639;DHT22;8938;53.546;9.954;2022-07-23T09:38:35;24.30;97.10
17639;DHT22;8938;53.546;9.954;2022-07-23T09:41:12;24.20;97.10
17639;DHT22;8938;53.546;9.954;2022-07-23T09:43:39;24.10;97.10
17639;DHT22;8938;53.546;9.954;2022-07-23T09:46:24;23.90;97.00
17639;DHT22;8938;53.546;9.954;2022-07-23T09:48:51;24.30;96.00
17639;DHT22;8938;53.546;9.954;2022-07-23T09:51:17;24.30;95.10
17639;DHT22;8938;53.546;9.954;2022-07-23T09:53:47;24.20;95.10
17639;DHT22;8938;53.546;9.954;2022-07-23T09:56:13;23.80;95.10
17639;DHT22;8938;53.546;9.954;2022-07-23T09:58:40;23.60;95.70
17639;DHT22;8938;53.546;9.954;2022-07-23T10:01:13;23.60;95.90
17639;DHT22;8938;53.546;9.954;2022-07-23T10:03:40;23.80;96.10
17639;DHT22;8938;53.546;9.954;2022-07-23T10:06:08;24.10;95.90
17639;DHT22;8938;53.546;9.954;2022-07-23T10:08:35;24.00;95.60
17639;DHT22;8938;53.546;9.954;2022-07-23T10:11:00;23.90;95.70
17639;DHT22;8938;53.546;9.954;2022-07-23T10:13:27;23.60;95.70
17639;DHT22;8938;53.546;9.954;2022-07-23T10:15:58;23.40;95.80
17639;DHT22;8938;53.546;9.954;2022-07-23T10:18:24;23.40;95.80
17639;DHT22;8938;53.546;9.954;2022-07-23T10:20:50;23.40;95.70
17639;DHT22;8938;53.546;9.954;2022-07-23T10:23:31;23.50;95.90
17639;DHT22;8938;53.546;9.954;2022-07-23T10:26:24;23.50;95.30
17639;DHT22;8938;53.546;9.954;2022-07-23T10:29:12;23.50;95.60
17639;DHT22;8938;53.546;9.954;2022-07-23T10:31:58;23.40;94.90
17639;DHT22;8938;53.546;9.954;2022-07-23T10:37:43;23.50;95.00
17639;DHT22;8938;53.546;9.954;2022-07-23T10:40:21;23.90;94.70
17639;DHT22;8938;53.546;9.954;2022-07-23T10:42:49;24.30;94.10
17639;DHT22;8938;53.546;9.954;2022-07-23T10:45:34;24.40;92.50
17639;DHT22;8938;53.546;9.954;2022-07-23T10:48:20;24.30;92.80
17639;DHT22;8938;53.546;9.954;2022-07-23T10:51:05;24.50;93.30
17639;DHT22;8938;53.546;9.954;2022-07-23T10:54:01;24.80;93.10
17639;DHT22;8938;53.546;9.954;2022-07-23T10:59:21;25.50;92.40
17639;DHT22;8938;53.546;9.954;2022-07-23T11:01:47;25.50;92.00
17639;DHT22;8938;53.546;9.954;2022-07-23T11:04:13;25.20;92.50
17639;DHT22;8938;53.546;9.954;2022-07-23T11:09:30;24.50;93.00
17639;DHT22;8938;53.546;9.954;2022-07-23T11:12:31;24.40;93.10
17639;DHT22;8938;53.546;9.954;2022-07-23T11:15:12;24.30;92.40
17639;DHT22;8938;53.546;9.954;2022-07-23T11:20:17;24.20;92.40
17639;DHT22;8938;53.546;9.954;2022-07-23T11:27:48;24.60;92.00
17639;DHT22;8938;53.546;9.954;2022-07-23T11:32:52;24.90;91.80
17639;DHT22;8938;53.546;9.954;2022-07-23T11:35:24;25.10;91.50
17639;DHT22;8938;53.546;9.954;2022-07-23T11:37:52;25.30;91.30
17639;DHT22;8938;53.546;9.954;2022-07-23T11:40:20;25.40;91.00
17639;DHT22;8938;53.546;9.954;2022-07-23T11:42:57;25.10;90.70
17639;DHT22;8938;53.546;9.954;2022-07-23T11:45:25;24.80;91.20
17639;DHT22;8938;53.546;9.954;2022-07-23T11:47:51;24.50;91.40
17639;DHT22;8938;53.546;9.954;2022-07-23T11:50:17;24.20;91.50
17639;DHT22;8938;53.546;9.954;2022-07-23T11:52:43;23.90;92.10
17639;DHT22;8938;53.546;9.954;2022-07-23T11:55:10;23.70;92.30
17639;DHT22;8938;53.546;9.954;2022-07-23T11:57:38;23.50;92.80
17639;DHT22;8938;53.546;9.954;2022-07-23T12:00:33;23.20;93.30
17639;DHT22;8938;53.546;9.954;2022-07-23T12:03:00;23.00;93.90
17639;DHT22;8938;53.546;9.954;2022-07-23T12:05:37;22.80;94.30
17639;DHT22;8938;53.546;9.954;2022-07-23T12:08:05;22.80;94.60
17639;DHT22;8938;53.546;9.954;2022-07-23T12:10:42;22.80;94.90
17639;DHT22;8938;53.546;9.954;2022-07-23T12:13:20;22.90;95.00
17639;DHT22;8938;53.546;9.954;2022-07-23T12:15:49;23.10;94.90
17639;DHT22;8938;53.546;9.954;2022-07-23T12:18:21;23.00;94.80
17639;DHT22;8938;53.546;9.954;2022-07-23T12:20:56;23.00;95.00
17639;DHT22;8938;53.546;9.954;2022-07-23T12:23:23;22.80;95.10
17639;DHT22;8938;53.546;9.954;2022-07-23T12:25:50;22.60;95.30
17639;DHT22;8938;53.546;9.954;2022-07-23T12:28:35;22.50;95.70
17639;DHT22;8938;53.546;9.954;2022-07-23T12:31:03;22.40;95.90
17639;DHT22;8938;53.546;9.954;2022-07-23T12:33:37;22.40;95.90
17639;DHT22;8938;53.546;9.954;2022-07-23T12:36:05;22.50;96.00
17639;DHT22;8938;53.546;9.954;2022-07-23T12:38:43;22.60;96.20
17639;DHT22;8938;53.546;9.954;2022-07-23T12:41:11;22.90;95.40
17639;DHT22;8938;53.546;9.954;2022-07-23T12:43:39;23.00;95.20
17639;DHT22;8938;53.546;9.954;2022-07-23T12:46:11;23.20;95.40
17639;DHT22;8938;53.546;9.954;2022-07-23T12:48:39;23.60;95.40
17639;DHT22;8938;53.546;9.954;2022-07-23T12:51:25;23.90;94.60
17639;DHT22;8938;53.546;9.954;2022-07-23T12:53:52;24.20;94.70
17639;DHT22;8938;53.546;9.954;2022-07-23T12:56:27;24.30;93.80
17639;DHT22;8938;53.546;9.954;2022-07-23T12:58:55;24.30;93.80
17639;DHT22;8938;53.546;9.954;2022-07-23T13:06:21;24.10;92.80
17639;DHT22;8938;53.546;9.954;2022-07-23T13:08:46;24.00;92.10
17639;DHT22;8938;53.546;9.954;2022-07-23T13:11:13;23.90;92.50
17639;DHT22;8938;53.546;9.954;2022-07-23T13:13:38;24.00;92.70
17639;DHT22;8938;53.546;9.954;2022-07-23T13:16:04;24.00;92.70
17639;DHT22;8938;53.546;9.954;2022-07-23T13:18:30;24.10;92.30
17639;DHT22;8938;53.546;9.954;2022-07-23T13:20:56;24.10;92.40
17639;DHT22;8938;53.546;9.954;2022-07-23T13:23:22;24.30;92.40
17639;DHT22;8938;53.546;9.954;2022-07-23T13:25:48;24.60;92.40
17639;DHT22;8938;53.546;9.954;2022-07-23T13:28:15;24.70;92.00
17639;DHT22;8938;53.546;9.954;2022-07-23T13:30:41;24.80;92.10
17639;DHT22;8938;53.546;9.954;2022-07-23T13:33:07;24.90;91.90
17639;DHT22;8938;53.546;9.954;2022-07-23T13:35:34;24.80;91.50
17639;DHT22;8938;53.546;9.954;2022-07-23T13:38:00;24.80;91.60
17639;DHT22;8938;53.546;9.954;2022-07-23T13:40:26;24.80;91.50
17639;DHT22;8938;53.546;9.954;2022-07-23T13:42:53;24.60;91.70
17639;DHT22;8938;53.546;9.954;2022-07-23T13:45:18;24.40;91.80
17639;DHT22;8938;53.546;9.954;2022-07-23T13:47:44;24.20;92.10
17639;DHT22;8938;53.546;9.954;2022-07-23T13:50:10;24.10;92.20
17639;DHT22;8938;53.546;9.954;2022-07-23T13:52:35;24.10;92.10
17639;DHT22;8938;53.546;9.954;2022-07-23T13:55:05;24.20;92.30
17639;DHT22;8938;53.546;9.954;2022-07-23T13:57:33;24.40;92.10
17639;DHT22;8938;53.546;9.954;2022-07-23T13:59:59;24.40;91.50
17639;DHT22;8938;53.546;9.954;2022-07-23T14:02:24;24.30;91.60
17639;DHT22;8938;53.546;9.954;2022-07-23T14:04:50;24.20;91.70
17639;DHT22;8938;53.546;9.954;2022-07-23T14:07:16;24.10;91.80
17639;DHT22;8938;53.546;9.954;2022-07-23T14:09:42;24.00;92.20
17639;DHT22;8938;53.546;9.954;2022-07-23T14:12:08;23.70;92.50
17639;DHT22;8938;53.546;9.954;2022-07-23T14:14:34;23.50;92.70
17639;DHT22;8938;53.546;9.954;2022-07-23T14:17:00;23.50;92.60
17639;DHT22;8938;53.546;9.954;2022-07-23T14:19:25;23.50;92.50
17639;DHT22;8938;53.546;9.954;2022-07-23T14:21:51;23.50;92.70
17639;DHT22;8938;53.546;9.954;2022-07-23T14:24:17;23.80;92.60
17639;DHT22;8938;53.546;9.954;2022-07-23T14:26:43;23.70;92.10
17639;DHT22;8938;53.546;9.954;2022-07-23T14:29:09;23.80;92.10
17639;DHT22;8938;53.546;9.954;2022-07-23T14:31:34;23.80;91.90
17639;DHT22;8938;53.546;9.954;2022-07-23T14:34:01;23.90;92.00
17639;DHT22;8938;53.546;9.954;2022-07-23T14:36:27;23.70;92.00
17639;DHT22;8938;53.546;9.954;2022-07-23T14:38:52;23.70;92.30
17639;DHT22;8938;53.546;9.954;2022-07-23T14:41:18;23.70;92.30
17639;DHT22;8938;53.546;9.954;2022-07-23T14:43:44;23.80;92.50
17639;DHT22;8938;53.546;9.954;2022-07-23T14:46:10;23.70;92.40
17639;DHT22;8938;53.546;9.954;2022-07-23T14:48:36;23.90;92.50
17639;DHT22;8938;53.546;9.954;2022-07-23T14:51:02;24.00;92.40
17639;DHT22;8938;53.546;9.954;2022-07-23T14:53:28;23.90;91.90
17639;DHT22;8938;53.546;9.954;2022-07-23T14:55:53;24.00;92.00
17639;DHT22;8938;53.546;9.954;2022-07-23T14:58:20;24.10;92.00
17639;DHT22;8938;53.546;9.954;2022-07-23T15:00:45;24.20;91.80
17639;DHT22;8938;53.546;9.954;2022-07-23T15:03:11;24.30;91.70
17639;DHT22;8938;53.546;9.954;2022-07-23T15:05:36;24.10;91.40
17639;DHT22;8938;53.546;9.954;2022-07-23T15:08:02;24.10;91.60
17639;DHT22;8938;53.546;9.954;2022-07-23T15:10:28;23.90;91.90
17639;DHT22;8938;53.546;9.954;2022-07-23T15:12:53;23.90;92.20
17639;DHT22;8938;53.546;9.954;2022-07-23T15:15:19;24.00;92.10
17639;DHT22;8938;53.546;9.954;2022-07-23T15:17:44;24.00;91.50
17639;DHT22;8938;53.546;9.954;2022-07-23T15:20:10;23.90;91.60
17639;DHT22;8938;53.546;9.954;2022-07-23T15:22:36;23.90;92.10
17639;DHT22;8938;53.546;9.954;2022-07-23T15:25:01;23.80;91.50
17639;DHT22;8938;53.546;9.954;2022-07-23T15:27:27;23.70;91.80
17639;DHT22;8938;53.546;9.954;2022-07-23T15:29:53;23.60;91.80
17639;DHT22;8938;53.546;9.954;2022-07-23T15:32:19;23.60;92.10
17639;DHT22;8938;53.546;9.954;2022-07-23T15:34:44;23.60;92.00
17639;DHT22;8938;53.546;9.954;2022-07-23T15:37:10;23.50;92.20
17639;DHT22;8938;53.546;9.954;2022-07-23T15:39:36;23.60;92.10
17639;DHT22;8938;53.546;9.954;2022-07-23T15:42:02;23.60;92.10
17639;DHT22;8938;53.546;9.954;2022-07-23T15:44:28;23.60;92.10
17639;DHT22;8938;53.546;9.954;2022-07-23T15:46:55;23.60;92.10
17639;DHT22;8938;53.546;9.954;2022-07-23T15:49:21;23.50;92.00
17639;DHT22;8938;53.546;9.954;2022-07-23T15:51:46;23.40;92.30
17639;DHT22;8938;53.546;9.954;2022-07-23T15:54:12;23.60;92.40
17639;DHT22;8938;53.546;9.954;2022-07-23T15:56:38;23.70;91.90
17639;DHT22;8938;53.546;9.954;2022-07-23T15:59:03;23.60;91.70
17639;DHT22;8938;53.546;9.954;2022-07-23T16:01:29;23.60;91.80
17639;DHT22;8938;53.546;9.954;2022-07-23T16:03:55;23.70;92.00
17639;DHT22;8938;53.546;9.954;2022-07-23T16:06:21;23.70;91.70
17639;DHT22;8938;53.546;9.954;2022-07-23T16:08:46;23.70;91.60
17639;DHT22;8938;53.546;9.954;2022-07-23T16:11:12;23.50;91.70
17639;DHT22;8938;53.546;9.954;2022-07-23T16:13:38;23.40;92.00